Main page
METAR-TAF:

METAR-TAF

Airports :

Edinburgh, Scotland

Edinburgh Airport

latitude: 55-57N, longitude: 003-21W, elevation: 41 m

Current weather observation

The report was made 13 minutes ago, at 11:20 UTC
Wind 7 kt from the West/Southwest, varying between Southwest and West/Northwest
Temperature 14°C
Humidity 36%
Pressure 1033 hPa
Visibility 10 km or more
no clouds below 1500 m and no cumulonimbus

METAR: EGPH 251120Z 24007KT 220V290 CAVOK 14/M01 Q1033

Time: 11:33 (11:33 UTC)

Forecast

The report was made 6 hours and 34 minutes ago, at 04:59 UTC
Forecast valid from 25 at 06 UTC to 26 at 06 UTC
Wind 6 kt from the West/Southwest
Visibility 10 km or more
Few clouds at a height of 3000 ft
Probability 30%
from 26 at 00 UTC to 26 at 06 UTC
Visibility: 7000 m

TAF: EGPH 250459Z 2506/2606 24006KT 9999 FEW030 PROB30 2600/2606 7000

Weather observations and forecasts of more than 4000 airports (METAR and TAF reports).

The available stations are represented by yellow and red dots on the map.

Hover mouse over dot to see the name of the station.

Then click to see weather observations and forecasts.

To change the map : click on the green buttons with a black cross to zoom in, on the green button with a dash to zoom out, or on the green arrows for adjacent maps.


METAR-TAF: